sensor_id;sensor_type;location;lat;lon;timestamp;temperature;humidity
17053;DHT22;8643;48.824;11.422;2022-11-20T00:01:38;2.50;99.90
17053;DHT22;8643;48.824;11.422;2022-11-20T00:04:10;2.50;99.90
17053;DHT22;8643;48.824;11.422;2022-11-20T00:06:38;2.50;99.90
17053;DHT22;8643;48.824;11.422;2022-11-20T00:09:09;1.40;99.90
17053;DHT22;8643;48.824;11.422;2022-11-20T00:14:06;2.50;99.90
17053;DHT22;8643;48.824;11.422;2022-11-20T00:16:38;2.50;99.90
17053;DHT22;8643;48.824;11.422;2022-11-20T00:19:06;2.50;99.90
17053;DHT22;8643;48.824;11.422;2022-11-20T00:24:03;2.50;99.90
17053;DHT22;8643;48.824;11.422;2022-11-20T00:26:32;2.50;99.90
17053;DHT22;8643;48.824;11.422;2022-11-20T00:29:01;2.40;99.90
17053;DHT22;8643;48.824;11.422;2022-11-20T00:31:30;2.50;99.90
17053;DHT22;8643;48.824;11.422;2022-11-20T00:34:01;2.40;99.90
17053;DHT22;8643;48.824;11.422;2022-11-20T00:36:33;2.40;99.90
17053;DHT22;8643;48.824;11.422;2022-11-20T00:41:30;2.40;99.90
17053;DHT22;8643;48.824;11.422;2022-11-20T00:43:59;2.90;99.90
17053;DHT22;8643;48.824;11.422;2022-11-20T00:48:57;2.50;99.90
17053;DHT22;8643;48.824;11.422;2022-11-20T00:51:27;2.50;99.90
17053;DHT22;8643;48.824;11.422;2022-11-20T00:53:56;2.60;99.90
17053;DHT22;8643;48.824;11.422;2022-11-20T00:56:26;2.70;99.90
17053;DHT22;8643;48.824;11.422;2022-11-20T00:58:55;2.70;99.90
17053;DHT22;8643;48.824;11.422;2022-11-20T01:01:25;2.70;99.90
17053;DHT22;8643;48.824;11.422;2022-11-20T01:03:57;2.60;99.90
17053;DHT22;8643;48.824;11.422;2022-11-20T01:09:00;2.50;99.90
17053;DHT22;8643;48.824;11.422;2022-11-20T01:11:32;2.50;99.90
17053;DHT22;8643;48.824;11.422;2022-11-20T01:14:04;2.60;99.90
17053;DHT22;8643;48.824;11.422;2022-11-20T01:16:35;2.60;99.90
17053;DHT22;8643;48.824;11.422;2022-11-20T01:19:06;2.60;99.90
17053;DHT22;8643;48.824;11.422;2022-11-20T01:21:46;2.60;99.90
17053;DHT22;8643;48.824;11.422;2022-11-20T01:24:20;2.80;99.90
17053;DHT22;8643;48.824;11.422;2022-11-20T01:26:50;2.60;99.90
17053;DHT22;8643;48.824;11.422;2022-11-20T01:29:20;2.60;99.90
17053;DHT22;8643;48.824;11.422;2022-11-20T01:31:51;2.60;99.90
17053;DHT22;8643;48.824;11.422;2022-11-20T01:34:21;1.30;99.90
17053;DHT22;8643;48.824;11.422;2022-11-20T01:36:52;2.60;99.90
17053;DHT22;8643;48.824;11.422;2022-11-20T01:39:22;2.60;99.90
17053;DHT22;8643;48.824;11.422;2022-11-20T01:41:53;2.50;99.90
17053;DHT22;8643;48.824;11.422;2022-11-20T01:44:47;2.60;99.90
17053;DHT22;8643;48.824;11.422;2022-11-20T01:47:27;2.60;99.90
17053;DHT22;8643;48.824;11.422;2022-11-20T01:50:04;2.60;99.90
17053;DHT22;8643;48.824;11.422;2022-11-20T01:52:42;2.70;99.90
17053;DHT22;8643;48.824;11.422;2022-11-20T01:55:20;1.80;99.90
17053;DHT22;8643;48.824;11.422;2022-11-20T01:57:52;2.70;99.90
17053;DHT22;8643;48.824;11.422;2022-11-20T02:00:21;2.60;99.90
17053;DHT22;8643;48.824;11.422;2022-11-20T02:02:52;2.70;99.90
17053;DHT22;8643;48.824;11.422;2022-11-20T02:05:27;2.70;99.90
17053;DHT22;8643;48.824;11.422;2022-11-20T02:08:03;2.70;99.90
17053;DHT22;8643;48.824;11.422;2022-11-20T02:10:33;2.70;99.90
17053;DHT22;8643;48.824;11.422;2022-11-20T02:13:02;2.80;99.90
17053;DHT22;8643;48.824;11.422;2022-11-20T02:15:49;2.70;99.90
17053;DHT22;8643;48.824;11.422;2022-11-20T02:18:19;2.80;99.90
17053;DHT22;8643;48.824;11.422;2022-11-20T02:20:52;2.70;99.90
17053;DHT22;8643;48.824;11.422;2022-11-20T02:23:30;2.70;99.90
17053;DHT22;8643;48.824;11.422;2022-11-20T02:26:10;2.70;99.90
17053;DHT22;8643;48.824;11.422;2022-11-20T02:28:42;2.80;99.90
17053;DHT22;8643;48.824;11.422;2022-11-20T02:33:39;2.70;99.90
17053;DHT22;8643;48.824;11.422;2022-11-20T02:36:08;2.70;99.90
17053;DHT22;8643;48.824;11.422;2022-11-20T02:38:43;2.70;99.90
17053;DHT22;8643;48.824;11.422;2022-11-20T02:41:13;2.70;99.90
17053;DHT22;8643;48.824;11.422;2022-11-20T02:43:41;2.10;99.90
17053;DHT22;8643;48.824;11.422;2022-11-20T02:46:09;2.70;99.90
17053;DHT22;8643;48.824;11.422;2022-11-20T02:48:38;2.70;99.90
17053;DHT22;8643;48.824;11.422;2022-11-20T02:51:07;2.70;99.90
17053;DHT22;8643;48.824;11.422;2022-11-20T02:53:35;2.70;99.90
17053;DHT22;8643;48.824;11.422;2022-11-20T02:56:04;2.80;99.90
17053;DHT22;8643;48.824;11.422;2022-11-20T02:58:35;2.70;99.90
17053;DHT22;8643;48.824;11.422;2022-11-20T03:01:03;2.70;99.90
17053;DHT22;8643;48.824;11.422;2022-11-20T03:03:32;2.70;99.90
17053;DHT22;8643;48.824;11.422;2022-11-20T03:06:00;2.70;99.90
17053;DHT22;8643;48.824;11.422;2022-11-20T03:11:02;2.80;99.90
17053;DHT22;8643;48.824;11.422;2022-11-20T03:13:33;3.70;99.90
17053;DHT22;8643;48.824;11.422;2022-11-20T03:16:08;2.90;99.90
17053;DHT22;8643;48.824;11.422;2022-11-20T03:18:38;2.80;99.90
17053;DHT22;8643;48.824;11.422;2022-11-20T03:21:07;3.70;99.90
17053;DHT22;8643;48.824;11.422;2022-11-20T03:23:38;2.80;99.90
17053;DHT22;8643;48.824;11.422;2022-11-20T03:26:08;2.80;99.90
17053;DHT22;8643;48.824;11.422;2022-11-20T03:28:40;2.40;99.90
17053;DHT22;8643;48.824;11.422;2022-11-20T03:31:10;2.80;99.90
17053;DHT22;8643;48.824;11.422;2022-11-20T03:33:40;2.90;99.90
17053;DHT22;8643;48.824;11.422;2022-11-20T03:36:11;2.90;99.90
17053;DHT22;8643;48.824;11.422;2022-11-20T03:38:41;2.90;99.90
17053;DHT22;8643;48.824;11.422;2022-11-20T03:43:47;2.90;99.90
17053;DHT22;8643;48.824;11.422;2022-11-20T03:46:16;2.90;99.90
17053;DHT22;8643;48.824;11.422;2022-11-20T03:48:45;3.00;99.90
17053;DHT22;8643;48.824;11.422;2022-11-20T03:51:19;3.10;99.90
17053;DHT22;8643;48.824;11.422;2022-11-20T03:53:50;3.10;99.90
17053;DHT22;8643;48.824;11.422;2022-11-20T03:56:23;3.60;99.90
17053;DHT22;8643;48.824;11.422;2022-11-20T03:58:53;1.80;99.90
17053;DHT22;8643;48.824;11.422;2022-11-20T04:01:23;3.10;99.90
17053;DHT22;8643;48.824;11.422;2022-11-20T04:03:54;3.10;99.90
17053;DHT22;8643;48.824;11.422;2022-11-20T04:06:25;3.00;99.90
17053;DHT22;8643;48.824;11.422;2022-11-20T04:08:55;3.10;99.90
17053;DHT22;8643;48.824;11.422;2022-11-20T04:11:26;3.00;99.90
17053;DHT22;8643;48.824;11.422;2022-11-20T04:13:59;3.00;99.90
17053;DHT22;8643;48.824;11.422;2022-11-20T04:16:30;3.00;99.90
17053;DHT22;8643;48.824;11.422;2022-11-20T04:19:03;3.10;99.90
17053;DHT22;8643;48.824;11.422;2022-11-20T04:24:02;3.10;99.90
17053;DHT22;8643;48.824;11.422;2022-11-20T04:26:31;3.10;99.90
17053;DHT22;8643;48.824;11.422;2022-11-20T04:29:01;3.00;99.90
17053;DHT22;8643;48.824;11.422;2022-11-20T04:31:31;3.20;99.90
17053;DHT22;8643;48.824;11.422;2022-11-20T04:34:01;2.10;99.90
17053;DHT22;8643;48.824;11.422;2022-11-20T04:39:03;3.20;99.90
17053;DHT22;8643;48.824;11.422;2022-11-20T04:41:34;4.60;99.90
17053;DHT22;8643;48.824;11.422;2022-11-20T04:44:05;3.30;99.90
17053;DHT22;8643;48.824;11.422;2022-11-20T04:46:35;3.30;99.90
17053;DHT22;8643;48.824;11.422;2022-11-20T04:49:06;3.40;99.90
17053;DHT22;8643;48.824;11.422;2022-11-20T04:51:35;3.40;99.90
17053;DHT22;8643;48.824;11.422;2022-11-20T04:54:03;4.20;99.90
17053;DHT22;8643;48.824;11.422;2022-11-20T04:56:32;4.10;99.90
17053;DHT22;8643;48.824;11.422;2022-11-20T04:59:00;3.40;99.90
17053;DHT22;8643;48.824;11.422;2022-11-20T05:01:31;3.40;99.90
17053;DHT22;8643;48.824;11.422;2022-11-20T05:03:59;3.40;99.90
17053;DHT22;8643;48.824;11.422;2022-11-20T05:06:28;3.50;99.90
17053;DHT22;8643;48.824;11.422;2022-11-20T05:08:56;3.40;99.90
17053;DHT22;8643;48.824;11.422;2022-11-20T05:11:25;3.40;99.90
17053;DHT22;8643;48.824;11.422;2022-11-20T05:13:58;3.60;99.90
17053;DHT22;8643;48.824;11.422;2022-11-20T05:16:27;3.60;99.90
17053;DHT22;8643;48.824;11.422;2022-11-20T05:18:57;3.70;99.90
17053;DHT22;8643;48.824;11.422;2022-11-20T05:21:25;3.70;99.90
17053;DHT22;8643;48.824;11.422;2022-11-20T05:23:54;3.70;99.90
17053;DHT22;8643;48.824;11.422;2022-11-20T05:26:23;3.80;99.90
17053;DHT22;8643;48.824;11.422;2022-11-20T05:28:51;4.30;99.90
17053;DHT22;8643;48.824;11.422;2022-11-20T05:31:21;4.00;99.90
17053;DHT22;8643;48.824;11.422;2022-11-20T05:33:55;4.10;99.90
17053;DHT22;8643;48.824;11.422;2022-11-20T05:36:25;4.20;99.90
17053;DHT22;8643;48.824;11.422;2022-11-20T05:38:54;4.30;99.90
17053;DHT22;8643;48.824;11.422;2022-11-20T05:41:27;4.30;99.90
17053;DHT22;8643;48.824;11.422;2022-11-20T05:43:56;4.30;99.90
17053;DHT22;8643;48.824;11.422;2022-11-20T05:46:25;4.30;99.90
17053;DHT22;8643;48.824;11.422;2022-11-20T05:48:57;4.30;99.90
17053;DHT22;8643;48.824;11.422;2022-11-20T05:51:26;4.30;99.90
17053;DHT22;8643;48.824;11.422;2022-11-20T05:53:56;4.40;99.90
17053;DHT22;8643;48.824;11.422;2022-11-20T05:56:25;4.40;99.90
17053;DHT22;8643;48.824;11.422;2022-11-20T06:03:54;4.40;99.90
17053;DHT22;8643;48.824;11.422;2022-11-20T06:06:24;4.40;99.90
17053;DHT22;8643;48.824;11.422;2022-11-20T06:08:53;4.40;99.90
17053;DHT22;8643;48.824;11.422;2022-11-20T06:11:22;4.40;99.90
17053;DHT22;8643;48.824;11.422;2022-11-20T06:13:51;4.40;99.90
17053;DHT22;8643;48.824;11.422;2022-11-20T06:16:19;4.40;99.90
17053;DHT22;8643;48.824;11.422;2022-11-20T06:18:48;4.40;99.90
17053;DHT22;8643;48.824;11.422;2022-11-20T06:21:19;4.70;99.90
17053;DHT22;8643;48.824;11.422;2022-11-20T06:26:22;4.40;99.90
17053;DHT22;8643;48.824;11.422;2022-11-20T06:28:52;4.40;99.90
17053;DHT22;8643;48.824;11.422;2022-11-20T06:31:24;5.90;99.90
17053;DHT22;8643;48.824;11.422;2022-11-20T06:33:53;4.40;99.90
17053;DHT22;8643;48.824;11.422;2022-11-20T06:36:23;4.40;99.90
17053;DHT22;8643;48.824;11.422;2022-11-20T06:38:53;4.40;99.90
17053;DHT22;8643;48.824;11.422;2022-11-20T06:41:22;4.50;99.90
17053;DHT22;8643;48.824;11.422;2022-11-20T06:43:50;4.40;99.90
17053;DHT22;8643;48.824;11.422;2022-11-20T06:46:19;4.50;99.90
17053;DHT22;8643;48.824;11.422;2022-11-20T06:48:48;4.40;99.90
17053;DHT22;8643;48.824;11.422;2022-11-20T06:51:18;4.60;99.90
17053;DHT22;8643;48.824;11.422;2022-11-20T06:53:46;4.50;99.90
17053;DHT22;8643;48.824;11.422;2022-11-20T06:56:16;4.40;99.90
17053;DHT22;8643;48.824;11.422;2022-11-20T07:01:14;4.40;99.90
17053;DHT22;8643;48.824;11.422;2022-11-20T07:03:43;4.50;99.90
17053;DHT22;8643;48.824;11.422;2022-11-20T07:06:18;4.40;99.90
17053;DHT22;8643;48.824;11.422;2022-11-20T07:11:19;4.40;99.90
17053;DHT22;8643;48.824;11.422;2022-11-20T07:13:47;4.40;99.90
17053;DHT22;8643;48.824;11.422;2022-11-20T07:16:16;4.40;99.90
17053;DHT22;8643;48.824;11.422;2022-11-20T07:18:44;4.40;99.90
17053;DHT22;8643;48.824;11.422;2022-11-20T07:21:16;4.40;99.90
17053;DHT22;8643;48.824;11.422;2022-11-20T07:23:45;4.40;99.90
17053;DHT22;8643;48.824;11.422;2022-11-20T07:26:13;4.50;99.90
17053;DHT22;8643;48.824;11.422;2022-11-20T07:28:45;4.50;99.90
17053;DHT22;8643;48.824;11.422;2022-11-20T07:31:13;4.50;99.90
17053;DHT22;8643;48.824;11.422;2022-11-20T07:33:45;4.50;99.90
17053;DHT22;8643;48.824;11.422;2022-11-20T07:36:14;4.50;99.90
17053;DHT22;8643;48.824;11.422;2022-11-20T07:38:42;4.60;99.90
17053;DHT22;8643;48.824;11.422;2022-11-20T07:41:11;4.60;99.90
17053;DHT22;8643;48.824;11.422;2022-11-20T07:46:09;4.60;99.90
17053;DHT22;8643;48.824;11.422;2022-11-20T07:48:39;4.60;99.90
17053;DHT22;8643;48.824;11.422;2022-11-20T07:51:07;4.60;99.90
17053;DHT22;8643;48.824;11.422;2022-11-20T07:53:36;4.70;99.90
17053;DHT22;8643;48.824;11.422;2022-11-20T07:56:05;4.70;99.90
17053;DHT22;8643;48.824;11.422;2022-11-20T07:58:33;4.70;99.90
17053;DHT22;8643;48.824;11.422;2022-11-20T08:01:05;4.00;99.90
17053;DHT22;8643;48.824;11.422;2022-11-20T08:03:36;4.80;99.90
17053;DHT22;8643;48.824;11.422;2022-11-20T08:06:06;4.80;99.90
17053;DHT22;8643;48.824;11.422;2022-11-20T08:08:35;4.70;99.90
17053;DHT22;8643;48.824;11.422;2022-11-20T08:11:09;4.70;99.90
17053;DHT22;8643;48.824;11.422;2022-11-20T08:13:54;4.70;99.90
17053;DHT22;8643;48.824;11.422;2022-11-20T08:16:43;4.70;99.90
17053;DHT22;8643;48.824;11.422;2022-11-20T08:19:16;4.80;99.90
17053;DHT22;8643;48.824;11.422;2022-11-20T08:21:46;4.80;99.90
17053;DHT22;8643;48.824;11.422;2022-11-20T08:24:17;4.80;99.90
17053;DHT22;8643;48.824;11.422;2022-11-20T08:26:45;4.80;99.90
17053;DHT22;8643;48.824;11.422;2022-11-20T08:34:15;4.90;99.90
17053;DHT22;8643;48.824;11.422;2022-11-20T08:36:45;4.80;99.90
17053;DHT22;8643;48.824;11.422;2022-11-20T08:39:14;4.80;99.90
17053;DHT22;8643;48.824;11.422;2022-11-20T08:41:42;4.80;99.90
17053;DHT22;8643;48.824;11.422;2022-11-20T08:44:11;5.00;99.90
17053;DHT22;8643;48.824;11.422;2022-11-20T08:46:41;5.00;99.90
17053;DHT22;8643;48.824;11.422;2022-11-20T08:49:13;5.10;99.90
17053;DHT22;8643;48.824;11.422;2022-11-20T08:51:44;5.10;99.90
17053;DHT22;8643;48.824;11.422;2022-11-20T08:54:14;5.30;99.90
17053;DHT22;8643;48.824;11.422;2022-11-20T08:59:14;5.40;99.90
17053;DHT22;8643;48.824;11.422;2022-11-20T09:02:02;5.50;99.90
17053;DHT22;8643;48.824;11.422;2022-11-20T09:04:32;5.50;99.90
17053;DHT22;8643;48.824;11.422;2022-11-20T09:11:59;5.50;99.90
17053;DHT22;8643;48.824;11.422;2022-11-20T09:14:27;4.40;99.90
17053;DHT22;8643;48.824;11.422;2022-11-20T09:16:57;5.50;99.90
17053;DHT22;8643;48.824;11.422;2022-11-20T09:19:25;5.50;99.90
17053;DHT22;8643;48.824;11.422;2022-11-20T09:22:03;5.50;99.90
17053;DHT22;8643;48.824;11.422;2022-11-20T09:24:31;5.40;99.90
17053;DHT22;8643;48.824;11.422;2022-11-20T09:27:02;5.50;99.90
17053;DHT22;8643;48.824;11.422;2022-11-20T09:29:31;5.50;99.90
17053;DHT22;8643;48.824;11.422;2022-11-20T09:32:00;5.40;99.90
17053;DHT22;8643;48.824;11.422;2022-11-20T09:34:28;5.30;99.90
17053;DHT22;8643;48.824;11.422;2022-11-20T09:36:56;6.60;99.90
17053;DHT22;8643;48.824;11.422;2022-11-20T09:39:31;5.50;99.90
17053;DHT22;8643;48.824;11.422;2022-11-20T09:42:22;5.50;99.90
17053;DHT22;8643;48.824;11.422;2022-11-20T09:45:18;5.50;99.90
17053;DHT22;8643;48.824;11.422;2022-11-20T09:48:08;5.60;99.90
17053;DHT22;8643;48.824;11.422;2022-11-20T09:50:49;5.50;99.90
17053;DHT22;8643;48.824;11.422;2022-11-20T09:53:32;5.50;99.90
17053;DHT22;8643;48.824;11.422;2022-11-20T09:56:14;5.50;99.90
17053;DHT22;8643;48.824;11.422;2022-11-20T09:58:51;5.50;99.90
17053;DHT22;8643;48.824;11.422;2022-11-20T10:01:26;5.60;99.90
17053;DHT22;8643;48.824;11.422;2022-11-20T10:04:09;5.60;99.90
17053;DHT22;8643;48.824;11.422;2022-11-20T10:06:47;5.60;99.90
17053;DHT22;8643;48.824;11.422;2022-11-20T10:09:51;5.60;99.90
17053;DHT22;8643;48.824;11.422;2022-11-20T10:12:30;5.70;99.90
17053;DHT22;8643;48.824;11.422;2022-11-20T10:15:16;5.70;99.90
17053;DHT22;8643;48.824;11.422;2022-11-20T10:18:04;5.80;99.90
17053;DHT22;8643;48.824;11.422;2022-11-20T10:20:48;5.80;99.90
17053;DHT22;8643;48.824;11.422;2022-11-20T10:23:39;5.80;99.90
17053;DHT22;8643;48.824;11.422;2022-11-20T10:26:22;5.90;99.90
17053;DHT22;8643;48.824;11.422;2022-11-20T10:29:11;5.90;99.90
17053;DHT22;8643;48.824;11.422;2022-11-20T10:34:19;5.90;99.90
17053;DHT22;8643;48.824;11.422;2022-11-20T10:36:55;5.90;99.90
17053;DHT22;8643;48.824;11.422;2022-11-20T10:39:32;5.90;99.90
17053;DHT22;8643;48.824;11.422;2022-11-20T10:42:10;5.90;99.90
17053;DHT22;8643;48.824;11.422;2022-11-20T10:44:49;5.90;99.90
17053;DHT22;8643;48.824;11.422;2022-11-20T10:50:03;6.00;99.90
17053;DHT22;8643;48.824;11.422;2022-11-20T10:52:42;6.00;99.90
17053;DHT22;8643;48.824;11.422;2022-11-20T10:55:27;6.00;99.90
17053;DHT22;8643;48.824;11.422;2022-11-20T10:58:05;6.10;99.90
17053;DHT22;8643;48.824;11.422;2022-11-20T11:00:40;6.20;99.90
17053;DHT22;8643;48.824;11.422;2022-11-20T11:03:25;6.30;99.90
17053;DHT22;8643;48.824;11.422;2022-11-20T11:06:01;6.00;99.90
17053;DHT22;8643;48.824;11.422;2022-11-20T11:08:38;6.50;99.90
17053;DHT22;8643;48.824;11.422;2022-11-20T11:11:18;6.60;99.90
17053;DHT22;8643;48.824;11.422;2022-11-20T11:13:49;6.60;99.90
17053;DHT22;8643;48.824;11.422;2022-11-20T11:16:23;6.50;99.90
17053;DHT22;8643;48.824;11.422;2022-11-20T11:19:03;6.30;99.90
17053;DHT22;8643;48.824;11.422;2022-11-20T11:21:33;6.10;99.90
17053;DHT22;8643;48.824;11.422;2022-11-20T11:24:04;5.90;99.90
17053;DHT22;8643;48.824;11.422;2022-11-20T11:26:56;5.90;99.90
17053;DHT22;8643;48.824;11.422;2022-11-20T11:29:26;5.80;99.90
17053;DHT22;8643;48.824;11.422;2022-11-20T11:32:05;5.80;99.90
17053;DHT22;8643;48.824;11.422;2022-11-20T11:34:34;5.80;99.90
17053;DHT22;8643;48.824;11.422;2022-11-20T11:37:04;5.80;99.90
17053;DHT22;8643;48.824;11.422;2022-11-20T11:39:42;5.80;99.90
17053;DHT22;8643;48.824;11.422;2022-11-20T11:42:21;4.80;99.90
17053;DHT22;8643;48.824;11.422;2022-11-20T11:44:49;6.00;99.90
17053;DHT22;8643;48.824;11.422;2022-11-20T11:47:37;6.20;99.90
17053;DHT22;8643;48.824;11.422;2022-11-20T11:50:17;6.20;99.90
17053;DHT22;8643;48.824;11.422;2022-11-20T11:52:54;6.20;99.90
17053;DHT22;8643;48.824;11.422;2022-11-20T11:55:31;6.10;99.90
17053;DHT22;8643;48.824;11.422;2022-11-20T11:58:24;6.00;99.90
17053;DHT22;8643;48.824;11.422;2022-11-20T12:03:42;6.10;99.90
17053;DHT22;8643;48.824;11.422;2022-11-20T12:06:17;6.00;99.90
17053;DHT22;8643;48.824;11.422;2022-11-20T12:08:50;6.10;99.90
17053;DHT22;8643;48.824;11.422;2022-11-20T12:11:28;6.10;99.90
17053;DHT22;8643;48.824;11.422;2022-11-20T12:14:04;6.10;99.90
17053;DHT22;8643;48.824;11.422;2022-11-20T12:16:41;6.20;99.90
17053;DHT22;8643;48.824;11.422;2022-11-20T12:19:13;6.20;99.90
17053;DHT22;8643;48.824;11.422;2022-11-20T12:21:52;6.20;99.90
17053;DHT22;8643;48.824;11.422;2022-11-20T12:24:46;6.20;99.90
17053;DHT22;8643;48.824;11.422;2022-11-20T12:27:43;6.30;99.90
17053;DHT22;8643;48.824;11.422;2022-11-20T12:30:21;6.40;99.90
17053;DHT22;8643;48.824;11.422;2022-11-20T12:33:12;6.40;99.90
17053;DHT22;8643;48.824;11.422;2022-11-20T12:36:07;6.40;99.90
17053;DHT22;8643;48.824;11.422;2022-11-20T12:39:00;6.50;99.90
17053;DHT22;8643;48.824;11.422;2022-11-20T12:41:51;6.40;99.90
17053;DHT22;8643;48.824;11.422;2022-11-20T12:45:06;6.30;99.90
17053;DHT22;8643;48.824;11.422;2022-11-20T12:53:59;6.40;99.90
17053;DHT22;8643;48.824;11.422;2022-11-20T12:56:53;6.40;99.90
17053;DHT22;8643;48.824;11.422;2022-11-20T12:59:42;6.40;99.90
17053;DHT22;8643;48.824;11.422;2022-11-20T13:02:29;7.70;99.90
17053;DHT22;8643;48.824;11.422;2022-11-20T13:05:19;6.30;99.90
17053;DHT22;8643;48.824;11.422;2022-11-20T13:07:53;6.40;99.90
17053;DHT22;8643;48.824;11.422;2022-11-20T13:10:29;6.30;99.90
17053;DHT22;8643;48.824;11.422;2022-11-20T13:13:14;6.30;99.90
17053;DHT22;8643;48.824;11.422;2022-11-20T13:15:51;6.40;99.90
17053;DHT22;8643;48.824;11.422;2022-11-20T13:18:26;6.40;99.90
17053;DHT22;8643;48.824;11.422;2022-11-20T13:20:56;6.40;99.90
17053;DHT22;8643;48.824;11.422;2022-11-20T13:23:33;6.50;99.90
17053;DHT22;8643;48.824;11.422;2022-11-20T13:26:06;6.50;99.90
17053;DHT22;8643;48.824;11.422;2022-11-20T13:28:45;6.50;99.90
17053;DHT22;8643;48.824;11.422;2022-11-20T13:31:30;6.30;99.90
17053;DHT22;8643;48.824;11.422;2022-11-20T13:34:02;6.50;99.90
17053;DHT22;8643;48.824;11.422;2022-11-20T13:36:34;6.50;99.90
17053;DHT22;8643;48.824;11.422;2022-11-20T13:39:05;6.70;99.90
17053;DHT22;8643;48.824;11.422;2022-11-20T13:41:34;6.50;99.90
17053;DHT22;8643;48.824;11.422;2022-11-20T13:44:13;6.50;99.90
17053;DHT22;8643;48.824;11.422;2022-11-20T13:46:44;6.50;99.90
17053;DHT22;8643;48.824;11.422;2022-11-20T13:49:19;6.40;99.90
17053;DHT22;8643;48.824;11.422;2022-11-20T13:51:59;6.50;99.90
17053;DHT22;8643;48.824;11.422;2022-11-20T13:54:57;6.40;99.90
17053;DHT22;8643;48.824;11.422;2022-11-20T13:57:48;6.30;99.90
17053;DHT22;8643;48.824;11.422;2022-11-20T14:00:30;8.30;99.90
17053;DHT22;8643;48.824;11.422;2022-11-20T14:03:08;6.40;99.90
17053;DHT22;8643;48.824;11.422;2022-11-20T14:05:52;6.30;99.90
17053;DHT22;8643;48.824;11.422;2022-11-20T14:08:31;6.30;99.90
17053;DHT22;8643;48.824;11.422;2022-11-20T14:11:14;6.40;99.90
17053;DHT22;8643;48.824;11.422;2022-11-20T14:13:56;6.40;99.90
17053;DHT22;8643;48.824;11.422;2022-11-20T14:16:28;6.40;99.90
17053;DHT22;8643;48.824;11.422;2022-11-20T14:19:16;6.40;99.90
17053;DHT22;8643;48.824;11.422;2022-11-20T14:21:54;6.30;99.90
17053;DHT22;8643;48.824;11.422;2022-11-20T14:27:04;6.30;99.90
17053;DHT22;8643;48.824;11.422;2022-11-20T14:29:38;6.30;99.90
17053;DHT22;8643;48.824;11.422;2022-11-20T14:32:09;5.60;99.90
17053;DHT22;8643;48.824;11.422;2022-11-20T14:34:40;6.30;99.90
17053;DHT22;8643;48.824;11.422;2022-11-20T14:37:12;6.30;99.90
17053;DHT22;8643;48.824;11.422;2022-11-20T14:39:50;6.40;99.90
17053;DHT22;8643;48.824;11.422;2022-11-20T14:42:23;6.40;99.90
17053;DHT22;8643;48.824;11.422;2022-11-20T14:44:55;6.40;99.90
17053;DHT22;8643;48.824;11.422;2022-11-20T14:47:26;6.40;99.90
17053;DHT22;8643;48.824;11.422;2022-11-20T14:49:58;6.50;99.90
17053;DHT22;8643;48.824;11.422;2022-11-20T14:52:35;6.40;99.90
17053;DHT22;8643;48.824;11.422;2022-11-20T14:55:04;6.50;99.90
17053;DHT22;8643;48.824;11.422;2022-11-20T14:57:35;6.50;99.90
17053;DHT22;8643;48.824;11.422;2022-11-20T15:00:07;6.60;99.90
17053;DHT22;8643;48.824;11.422;2022-11-20T15:02:47;6.50;99.90
17053;DHT22;8643;48.824;11.422;2022-11-20T15:05:18;6.40;99.90
17053;DHT22;8643;48.824;11.422;2022-11-20T15:07:50;6.30;99.90
17053;DHT22;8643;48.824;11.422;2022-11-20T15:10:32;6.10;99.90
17053;DHT22;8643;48.824;11.422;2022-11-20T15:13:04;6.00;99.90
17053;DHT22;8643;48.824;11.422;2022-11-20T15:15:45;5.90;99.90
17053;DHT22;8643;48.824;11.422;2022-11-20T15:18:17;5.80;99.90
17053;DHT22;8643;48.824;11.422;2022-11-20T15:20:48;5.70;99.90
17053;DHT22;8643;48.824;11.422;2022-11-20T15:23:18;5.70;99.90
17053;DHT22;8643;48.824;11.422;2022-11-20T15:28:21;5.70;99.90
17053;DHT22;8643;48.824;11.422;2022-11-20T15:30:57;5.70;99.90
17053;DHT22;8643;48.824;11.422;2022-11-20T15:35:55;5.20;99.90
17053;DHT22;8643;48.824;11.422;2022-11-20T15:38:23;5.80;99.90
17053;DHT22;8643;48.824;11.422;2022-11-20T15:43:22;5.80;99.90
17053;DHT22;8643;48.824;11.422;2022-11-20T15:45:53;5.80;99.90
17053;DHT22;8643;48.824;11.422;2022-11-20T15:48:26;5.70;99.90
17053;DHT22;8643;48.824;11.422;2022-11-20T15:50:58;5.80;99.90
17053;DHT22;8643;48.824;11.422;2022-11-20T15:53:31;5.80;99.90
17053;DHT22;8643;48.824;11.422;2022-11-20T15:55:59;5.80;99.90
17053;DHT22;8643;48.824;11.422;2022-11-20T15:58:29;5.70;99.90
17053;DHT22;8643;48.824;11.422;2022-11-20T16:00:58;5.70;99.90
17053;DHT22;8643;48.824;11.422;2022-11-20T16:03:26;5.70;99.90
17053;DHT22;8643;48.824;11.422;2022-11-20T16:05:55;5.60;99.90
17053;DHT22;8643;48.824;11.422;2022-11-20T16:08:23;5.50;99.90
17053;DHT22;8643;48.824;11.422;2022-11-20T16:10:51;5.60;99.90
17053;DHT22;8643;48.824;11.422;2022-11-20T16:13:20;5.60;99.90
17053;DHT22;8643;48.824;11.422;2022-11-20T16:16:11;5.60;99.90
17053;DHT22;8643;48.824;11.422;2022-11-20T16:18:47;5.50;99.90
17053;DHT22;8643;48.824;11.422;2022-11-20T16:21:16;5.50;99.90
17053;DHT22;8643;48.824;11.422;2022-11-20T16:23:44;5.40;99.90
17053;DHT22;8643;48.824;11.422;2022-11-20T16:26:14;5.40;99.90
17053;DHT22;8643;48.824;11.422;2022-11-20T16:28:45;5.40;99.90
17053;DHT22;8643;48.824;11.422;2022-11-20T16:31:17;5.40;99.90
17053;DHT22;8643;48.824;11.422;2022-11-20T16:33:49;5.40;99.90
17053;DHT22;8643;48.824;11.422;2022-11-20T16:36:19;5.40;99.90
17053;DHT22;8643;48.824;11.422;2022-11-20T16:38:51;5.30;99.90
17053;DHT22;8643;48.824;11.422;2022-11-20T16:41:20;5.30;99.90
17053;DHT22;8643;48.824;11.422;2022-11-20T16:43:51;5.40;99.90
17053;DHT22;8643;48.824;11.422;2022-11-20T16:46:23;5.30;99.90
17053;DHT22;8643;48.824;11.422;2022-11-20T16:48:54;5.30;99.90
17053;DHT22;8643;48.824;11.422;2022-11-20T16:51:24;5.30;99.90
17053;DHT22;8643;48.824;11.422;2022-11-20T16:53:53;5.20;99.90
17053;DHT22;8643;48.824;11.422;2022-11-20T16:56:24;5.10;99.90
17053;DHT22;8643;48.824;11.422;2022-11-20T16:58:55;4.90;99.90
17053;DHT22;8643;48.824;11.422;2022-11-20T17:01:27;4.70;99.90
17053;DHT22;8643;48.824;11.422;2022-11-20T17:03:58;5.60;99.90
17053;DHT22;8643;48.824;11.422;2022-11-20T17:06:29;4.50;99.90
17053;DHT22;8643;48.824;11.422;2022-11-20T17:08:58;4.30;99.90
17053;DHT22;8643;48.824;11.422;2022-11-20T17:11:27;4.10;99.90
17053;DHT22;8643;48.824;11.422;2022-11-20T17:13:57;4.00;99.90
17053;DHT22;8643;48.824;11.422;2022-11-20T17:16:28;3.80;99.90
17053;DHT22;8643;48.824;11.422;2022-11-20T17:21:29;3.70;99.90
17053;DHT22;8643;48.824;11.422;2022-11-20T17:24:00;4.20;99.90
17053;DHT22;8643;48.824;11.422;2022-11-20T17:26:29;3.60;99.90
17053;DHT22;8643;48.824;11.422;2022-11-20T17:28:59;3.70;99.90
17053;DHT22;8643;48.824;11.422;2022-11-20T17:31:32;3.80;99.90
17053;DHT22;8643;48.824;11.422;2022-11-20T17:34:01;3.80;99.90
17053;DHT22;8643;48.824;11.422;2022-11-20T17:36:31;3.80;99.90
17053;DHT22;8643;48.824;11.422;2022-11-20T17:38:59;3.80;99.90
17053;DHT22;8643;48.824;11.422;2022-11-20T17:41:28;3.70;99.90
17053;DHT22;8643;48.824;11.422;2022-11-20T17:43:58;3.70;99.90